Time;durP1;ratioP1;P1;durP2;ratioP2;P2;SDS_P1;SDS_P2;PMS_P1;PMS_P2;Temp;Humidity;BMP_temperature;BMP_pressure;BME280_temperature;BME280_humidity;BME280_pressure;Samples;Min_cycle;Max_cycle;Signal;HPM_P1;HPM_P2
2021/11/04 00:01:24;;;;;;;2.57;1.60;;;;;;;;;;5014954;28;20435;-67
2021/11/04 00:03:50;;;;;;;2.00;1.40;;;;;;;;;;5014397;28;20415;-67
2021/11/04 00:06:16;;;;;;;2.43;1.77;;;;;;;;;;5015888;28;20771;-68
2021/11/04 00:08:42;;;;;;;1.80;1.23;;;;;;;;;;5015406;28;20809;-67
2021/11/04 00:11:08;;;;;;;2.07;1.47;;;;;;;;;;5003372;28;20455;-67
2021/11/04 00:13:35;;;;;;;2.00;1.60;;;;;;;;;;4995987;28;20401;-68
2021/11/04 00:16:01;;;;;;;3.10;1.83;;;;;;;;;;4995950;28;20397;-67
2021/11/04 00:18:27;;;;;;;5.60;2.10;;;;;;;;;;4996024;28;20400;-67
2021/11/04 00:20:53;;;;;;;3.60;1.97;;;;;;;;;;4995703;28;20483;-67
2021/11/04 00:23:19;;;;;;;3.00;2.03;;;;;;;;;;4996104;28;20459;-68
2021/11/04 00:25:45;;;;;;;3.50;2.40;;;;;;;;;;4995797;28;20483;-67
2021/11/04 00:28:11;;;;;;;3.30;2.03;;;;;;;;;;4995923;28;20476;-68
2021/11/04 00:30:37;;;;;;;3.10;2.10;;;;;;;;;;4995564;28;20409;-67
2021/11/04 00:33:03;;;;;;;2.63;1.67;;;;;;;;;;4995737;28;20458;-67
2021/11/04 00:35:29;;;;;;;2.30;1.57;;;;;;;;;;4995670;28;20409;-67
2021/11/04 00:37:55;;;;;;;2.50;2.10;;;;;;;;;;5010686;28;20458;-67
2021/11/04 00:40:22;;;;;;;2.73;2.00;;;;;;;;;;4995633;28;20447;-68
2021/11/04 00:42:48;;;;;;;2.60;1.90;;;;;;;;;;4995657;28;20429;-68
2021/11/04 00:45:15;;;;;;;2.60;2.07;;;;;;;;;;4994177;28;20886;-68
2021/11/04 00:47:42;;;;;;;3.50;2.00;;;;;;;;;;4995120;28;20959;-67
2021/11/04 00:50:08;;;;;;;3.00;1.90;;;;;;;;;;4995213;28;20466;-67
2021/11/04 00:52:34;;;;;;;2.53;2.07;;;;;;;;;;4995094;28;20439;-68
2021/11/04 00:55:01;;;;;;;2.47;1.87;;;;;;;;;;4995089;28;20423;-67
2021/11/04 00:57:27;;;;;;;2.23;2.03;;;;;;;;;;4995176;28;20467;-67
2021/11/04 00:59:53;;;;;;;3.27;2.20;;;;;;;;;;4997226;28;20487;-67
2021/11/04 01:02:19;;;;;;;3.20;2.27;;;;;;;;;;5014577;28;20829;-68
2021/11/04 01:04:45;;;;;;;3.90;2.40;;;;;;;;;;5014824;28;20403;-68
2021/11/04 01:07:11;;;;;;;4.60;2.30;;;;;;;;;;5014511;28;20425;-68
2021/11/04 01:09:37;;;;;;;3.40;2.77;;;;;;;;;;5014411;28;20502;-68
2021/11/04 01:12:03;;;;;;;3.53;2.13;;;;;;;;;;4994777;28;20459;-68
2021/11/04 01:14:29;;;;;;;3.30;2.20;;;;;;;;;;4994804;28;20440;-68
2021/11/04 01:16:55;;;;;;;2.67;2.20;;;;;;;;;;4994569;28;20415;-67
2021/11/04 01:19:21;;;;;;;2.70;1.90;;;;;;;;;;4995002;28;20455;-67
2021/11/04 01:21:47;;;;;;;3.40;2.47;;;;;;;;;;4994806;28;20432;-67
2021/11/04 01:24:14;;;;;;;3.00;1.90;;;;;;;;;;4994570;28;20405;-68
2021/11/04 01:26:40;;;;;;;3.17;2.43;;;;;;;;;;4994728;28;20408;-67
2021/11/04 01:29:06;;;;;;;2.27;1.77;;;;;;;;;;4994498;28;20412;-67
2021/11/04 01:31:32;;;;;;;4.50;2.60;;;;;;;;;;4994627;28;20483;-67
2021/11/04 01:33:58;;;;;;;3.67;2.17;;;;;;;;;;4994470;28;20418;-67
2021/11/04 01:36:24;;;;;;;2.77;1.90;;;;;;;;;;4994475;28;20408;-67
2021/11/04 01:38:50;;;;;;;3.50;2.30;;;;;;;;;;4994445;28;20401;-68
2021/11/04 01:41:17;;;;;;;3.00;2.13;;;;;;;;;;4994154;28;20495;-67
2021/11/04 01:43:43;;;;;;;4.37;2.00;;;;;;;;;;4994537;28;20399;-67
2021/11/04 01:46:10;;;;;;;2.23;1.67;;;;;;;;;;4994366;28;20466;-68
2021/11/04 01:48:38;;;;;;;2.57;1.60;;;;;;;;;;4994172;28;20393;-67
2021/11/04 01:51:04;;;;;;;2.03;1.70;;;;;;;;;;4994099;28;20421;-67
2021/11/04 01:53:30;;;;;;;2.33;1.60;;;;;;;;;;4993993;28;20958;-68
2021/11/04 01:55:56;;;;;;;1.87;1.50;;;;;;;;;;4993928;28;20400;-67
2021/11/04 01:58:22;;;;;;;2.87;1.60;;;;;;;;;;4994231;28;20765;-67
2021/11/04 02:00:48;;;;;;;2.37;1.23;;;;;;;;;;5003442;28;20456;-67
2021/11/04 02:03:31;;;;;;;2.10;1.30;;;;;;;;;;5013756;28;20759;-67
2021/11/04 02:06:12;;;;;;;2.67;1.30;;;;;;;;;;5013663;28;20396;-67
2021/11/04 02:08:54;;;;;;;2.90;1.30;;;;;;;;;;5013544;28;20858;-67
2021/11/04 02:11:21;;;;;;;1.93;1.33;;;;;;;;;;5013438;28;20533;-67
2021/11/04 02:13:51;;;;;;;3.40;1.17;;;;;;;;;;5013454;28;20403;-67
2021/11/04 02:16:18;;;;;;;1.90;1.17;;;;;;;;;;5013283;28;20399;-67
2021/11/04 02:18:45;;;;;;;2.17;1.37;;;;;;;;;;5013604;28;20401;-67
2021/11/04 02:21:50;;;;;;;2.13;1.47;;;;;;;;;;5013280;28;20500;-67
2021/11/04 02:24:19;;;;;;;2.93;1.57;;;;;;;;;;4972208;28;20428;-67
2021/11/04 02:26:45;;;;;;;1.90;1.00;;;;;;;;;;4972260;28;20879;-67
2021/11/04 02:29:12;;;;;;;2.10;1.30;;;;;;;;;;4992631;28;20779;-67
2021/11/04 02:31:38;;;;;;;1.40;1.20;;;;;;;;;;5028726;28;20971;-67
2021/11/04 02:34:04;;;;;;;3.27;1.43;;;;;;;;;;5013591;28;20486;-67
2021/11/04 02:36:31;;;;;;;3.30;1.20;;;;;;;;;;5013278;28;20454;-67
2021/11/04 02:38:57;;;;;;;1.53;1.13;;;;;;;;;;5013155;28;20399;-67
2021/11/04 02:41:23;;;;;;;2.00;1.50;;;;;;;;;;5013192;28;20412;-67
2021/11/04 02:43:50;;;;;;;1.60;1.30;;;;;;;;;;5013197;28;20399;-67
2021/11/04 02:46:16;;;;;;;1.93;1.23;;;;;;;;;;5012932;28;20503;-67
2021/11/04 02:48:42;;;;;;;1.60;1.20;;;;;;;;;;5011381;28;20760;-67
2021/11/04 02:51:08;;;;;;;1.40;1.00;;;;;;;;;;5012250;28;20847;-67
2021/11/04 02:53:35;;;;;;;1.97;1.20;;;;;;;;;;5012987;28;20462;-67
2021/11/04 02:56:01;;;;;;;1.63;1.20;;;;;;;;;;5013010;28;20446;-67
2021/11/04 02:58:27;;;;;;;2.70;1.37;;;;;;;;;;5013245;28;20825;-67
2021/11/04 03:00:55;;;;;;;2.93;1.40;;;;;;;;;;5002424;28;20804;-67
2021/11/04 03:03:21;;;;;;;1.77;1.10;;;;;;;;;;4993540;28;20420;-67
2021/11/04 03:05:47;;;;;;;1.80;1.30;;;;;;;;;;4993380;28;20407;-67
2021/11/04 03:08:13;;;;;;;2.50;1.40;;;;;;;;;;4994177;28;20404;-67
2021/11/04 03:10:40;;;;;;;1.50;1.20;;;;;;;;;;4996934;28;21031;-67
2021/11/04 03:13:06;;;;;;;1.50;1.17;;;;;;;;;;4996909;28;20416;-67
2021/11/04 03:15:46;;;;;;;1.60;1.03;;;;;;;;;;4997199;28;20400;-67
2021/11/04 03:18:12;;;;;;;2.00;1.23;;;;;;;;;;4996890;28;20750;-67
2021/11/04 03:20:39;;;;;;;2.03;1.40;;;;;;;;;;4996728;28;20475;-67
2021/11/04 03:23:06;;;;;;;1.60;1.33;;;;;;;;;;4996969;28;20408;-67
2021/11/04 03:25:32;;;;;;;2.20;1.50;;;;;;;;;;4996866;28;20401;-67
2021/11/04 03:27:59;;;;;;;1.70;1.30;;;;;;;;;;5006360;28;20427;-67
2021/11/04 03:30:26;;;;;;;1.90;1.30;;;;;;;;;;4998506;28;20452;-67
2021/11/04 03:32:53;;;;;;;1.80;1.17;;;;;;;;;;5016445;28;20857;-67
2021/11/04 03:35:20;;;;;;;1.60;1.20;;;;;;;;;;5004970;28;20447;-67
2021/11/04 03:37:47;;;;;;;1.60;1.20;;;;;;;;;;5014626;28;20412;-67
2021/11/04 03:40:14;;;;;;;1.97;1.37;;;;;;;;;;5009550;28;20451;-67
2021/11/04 03:42:40;;;;;;;1.90;1.30;;;;;;;;;;4996862;28;20952;-67
2021/11/04 03:45:08;;;;;;;2.60;1.40;;;;;;;;;;5003739;28;20414;-67
2021/11/04 03:47:35;;;;;;;3.57;1.33;;;;;;;;;;5015957;28;20403;-67
2021/11/04 03:50:01;;;;;;;2.80;1.50;;;;;;;;;;5015911;28;20440;-67
2021/11/04 03:52:28;;;;;;;1.53;1.20;;;;;;;;;;5016189;28;20796;-67
2021/11/04 03:54:55;;;;;;;1.83;1.30;;;;;;;;;;5016178;28;20778;-67
2021/11/04 03:57:23;;;;;;;1.80;1.23;;;;;;;;;;5015800;28;20907;-67
2021/11/04 03:59:50;;;;;;;1.73;1.20;;;;;;;;;;5015410;28;20520;-67
2021/11/04 04:02:16;;;;;;;1.77;1.43;;;;;;;;;;5015624;28;20435;-67
2021/11/04 04:04:50;;;;;;;1.90;1.40;;;;;;;;;;5015663;28;20404;-67
2021/11/04 04:07:16;;;;;;;1.60;1.20;;;;;;;;;;5015980;28;20482;-67
2021/11/04 04:09:42;;;;;;;1.80;1.17;;;;;;;;;;5015551;28;20408;-67
2021/11/04 04:12:08;;;;;;;2.30;1.40;;;;;;;;;;5015267;28;20470;-67
2021/11/04 04:14:34;;;;;;;1.70;1.37;;;;;;;;;;5015482;28;20420;-67
2021/11/04 04:17:00;;;;;;;5.40;1.57;;;;;;;;;;5015270;28;20904;-67
2021/11/04 04:19:26;;;;;;;2.53;1.80;;;;;;;;;;5014360;28;20447;-69
2021/11/04 04:21:52;;;;;;;1.60;1.10;;;;;;;;;;5002830;28;20468;-67
2021/11/04 04:24:18;;;;;;;2.13;1.43;;;;;;;;;;5015383;28;20915;-67
2021/11/04 04:26:44;;;;;;;2.20;1.37;;;;;;;;;;5013782;28;20481;-67
2021/11/04 04:29:10;;;;;;;5.17;1.70;;;;;;;;;;5015156;28;20951;-67
2021/11/04 04:31:36;;;;;;;2.23;1.40;;;;;;;;;;5012086;28;20538;-67
2021/11/04 04:34:02;;;;;;;2.70;1.43;;;;;;;;;;5005843;28;20791;-67
2021/11/04 04:36:28;;;;;;;1.90;1.53;;;;;;;;;;4996133;28;20955;-67
2021/11/04 04:38:54;;;;;;;2.40;1.53;;;;;;;;;;4995361;28;20905;-67
2021/11/04 04:41:21;;;;;;;1.90;1.50;;;;;;;;;;4995476;28;20935;-67
2021/11/04 04:43:47;;;;;;;2.20;1.60;;;;;;;;;;4995429;28;20412;-67
2021/11/04 04:46:13;;;;;;;1.67;1.13;;;;;;;;;;4995374;28;20487;-68
2021/11/04 04:48:39;;;;;;;2.17;1.53;;;;;;;;;;4995288;28;20449;-69
2021/11/04 04:51:05;;;;;;;1.63;1.30;;;;;;;;;;4995744;28;20503;-67
2021/11/04 04:53:31;;;;;;;2.00;1.40;;;;;;;;;;4993958;28;20877;-67
2021/11/04 04:55:57;;;;;;;2.03;1.33;;;;;;;;;;4995127;28;20420;-67
2021/11/04 04:58:23;;;;;;;2.00;1.60;;;;;;;;;;4995305;28;20459;-67
2021/11/04 05:00:50;;;;;;;1.70;1.40;;;;;;;;;;4995029;28;20535;-67
2021/11/04 05:03:16;;;;;;;3.00;1.30;;;;;;;;;;4995006;28;20419;-67
2021/11/04 05:05:42;;;;;;;1.60;1.37;;;;;;;;;;5010091;28;20463;-67
2021/11/04 05:08:08;;;;;;;1.70;1.50;;;;;;;;;;4995269;28;20416;-67
2021/11/04 05:10:34;;;;;;;1.87;1.67;;;;;;;;;;4995160;28;20427;-67
2021/11/04 05:13:00;;;;;;;2.20;1.40;;;;;;;;;;5052785;23;20940;-61
2021/11/04 05:15:26;;;;;;;2.80;2.00;;;;;;;;;;5034638;28;20407;-62
2021/11/04 05:17:52;;;;;;;1.40;1.00;;;;;;;;;;5034593;28;20395;-62
2021/11/04 05:20:18;;;;;;;2.23;1.20;;;;;;;;;;5034142;28;20529;-63
2021/11/04 05:22:44;;;;;;;1.53;1.07;;;;;;;;;;5034208;28;20422;-61
2021/11/04 05:25:10;;;;;;;2.03;0.93;;;;;;;;;;5034049;28;20887;-63
2021/11/04 05:27:37;;;;;;;1.57;1.13;;;;;;;;;;5034221;28;20399;-61
2021/11/04 05:30:04;;;;;;;1.97;1.00;;;;;;;;;;5034240;28;20406;-63
2021/11/04 05:32:30;;;;;;;1.30;0.90;;;;;;;;;;5033297;28;20443;-62
2021/11/04 05:34:56;;;;;;;1.50;1.10;;;;;;;;;;5017318;28;20407;-61
2021/11/04 05:37:22;;;;;;;1.97;1.03;;;;;;;;;;5014630;28;20407;-63
2021/11/04 05:39:48;;;;;;;1.50;1.10;;;;;;;;;;5012914;28;20958;-63
2021/11/04 05:42:14;;;;;;;1.50;1.00;;;;;;;;;;5014301;28;20514;-62
2021/11/04 05:44:40;;;;;;;1.67;1.00;;;;;;;;;;5015192;28;20400;-62
2021/11/04 05:47:07;;;;;;;1.43;1.03;;;;;;;;;;5015274;28;20400;-63
2021/11/04 05:49:33;;;;;;;1.93;0.90;;;;;;;;;;5019665;28;20946;-63
2021/11/04 05:51:59;;;;;;;1.93;1.30;;;;;;;;;;5025690;28;20440;-62
2021/11/04 05:54:25;;;;;;;1.70;1.10;;;;;;;;;;5016759;28;20653;-64
2021/11/04 05:56:51;;;;;;;1.60;1.10;;;;;;;;;;5032766;28;20484;-63
2021/11/04 05:59:17;;;;;;;1.90;1.00;;;;;;;;;;5026068;28;20462;-62
2021/11/04 06:01:43;;;;;;;1.87;1.10;;;;;;;;;;5017602;28;20455;-63
2021/11/04 06:04:09;;;;;;;1.43;1.00;;;;;;;;;;5013952;28;20498;-63
2021/11/04 06:06:35;;;;;;;1.70;1.07;;;;;;;;;;5031545;28;20407;-62
2021/11/04 06:09:01;;;;;;;2.07;1.47;;;;;;;;;;5037952;28;20438;-62
2021/11/04 06:11:27;;;;;;;1.80;1.40;;;;;;;;;;5036770;28;20468;-63
2021/11/04 06:13:53;;;;;;;1.90;1.47;;;;;;;;;;5033527;28;20395;-63
2021/11/04 06:16:20;;;;;;;1.90;1.43;;;;;;;;;;5031991;28;20498;-65
2021/11/04 06:18:46;;;;;;;2.27;1.77;;;;;;;;;;5013342;28;20420;-62
2021/11/04 06:21:13;;;;;;;2.43;1.97;;;;;;;;;;5013379;28;21023;-63
2021/11/04 06:23:39;;;;;;;2.00;1.43;;;;;;;;;;5013837;28;20771;-63
2021/11/04 06:26:05;;;;;;;3.33;1.83;;;;;;;;;;5013548;28;20402;-63
2021/11/04 06:28:31;;;;;;;4.37;1.70;;;;;;;;;;5013280;28;20399;-64
2021/11/04 06:30:57;;;;;;;2.50;1.40;;;;;;;;;;5013456;28;20400;-64
2021/11/04 06:33:23;;;;;;;4.90;2.70;;;;;;;;;;5013549;28;20395;-64
2021/11/04 06:35:53;;;;;;;1.97;1.50;;;;;;;;;;5013910;28;20498;-62
2021/11/04 06:38:19;;;;;;;1.70;1.30;;;;;;;;;;5014176;28;20392;-62
2021/11/04 06:40:45;;;;;;;2.87;2.00;;;;;;;;;;5013551;28;20451;-63
2021/11/04 06:43:12;;;;;;;2.43;1.87;;;;;;;;;;5015968;28;20423;-63
2021/11/04 06:45:39;;;;;;;3.57;1.53;;;;;;;;;;5017637;28;20797;-63
2021/11/04 06:48:07;;;;;;;1.90;1.40;;;;;;;;;;5017219;28;20399;-64
2021/11/04 06:50:34;;;;;;;2.50;1.60;;;;;;;;;;5017237;28;20400;-64
2021/11/04 06:53:07;;;;;;;1.80;1.40;;;;;;;;;;5017155;28;20419;-62
2021/11/04 06:55:34;;;;;;;2.30;1.60;;;;;;;;;;5016125;28;20411;-61
2021/11/04 06:58:02;;;;;;;3.00;1.40;;;;;;;;;;5017207;28;20391;-62
2021/11/04 07:00:32;;;;;;;2.00;1.40;;;;;;;;;;5017431;28;20481;-65
2021/11/04 07:03:07;;;;;;;2.50;1.67;;;;;;;;;;5017246;28;20891;-61
2021/11/04 07:05:33;;;;;;;1.90;1.33;;;;;;;;;;5017330;28;20521;-61
2021/11/04 07:08:01;;;;;;;2.03;1.50;;;;;;;;;;5017277;28;20494;-62
2021/11/04 07:10:27;;;;;;;3.63;1.60;;;;;;;;;;5016740;28;20486;-63
2021/11/04 07:12:53;;;;;;;2.00;1.77;;;;;;;;;;5016767;28;20947;-64
2021/11/04 07:15:20;;;;;;;2.83;1.50;;;;;;;;;;5016820;28;20900;-64
2021/11/04 07:17:47;;;;;;;2.40;1.80;;;;;;;;;;5016732;28;20403;-63
2021/11/04 07:20:14;;;;;;;1.50;1.23;;;;;;;;;;5016803;28;20486;-62
2021/11/04 07:22:50;;;;;;;2.00;1.80;;;;;;;;;;5031630;28;20438;-61
2021/11/04 07:25:17;;;;;;;2.40;1.97;;;;;;;;;;5016984;28;20406;-62
2021/11/04 07:27:53;;;;;;;2.77;1.73;;;;;;;;;;5016606;28;20420;-62
2021/11/04 07:30:19;;;;;;;2.50;2.03;;;;;;;;;;5016541;28;20942;-62
2021/11/04 07:32:47;;;;;;;2.17;1.77;;;;;;;;;;5016515;28;20428;-62
2021/11/04 07:35:15;;;;;;;2.37;2.10;;;;;;;;;;5016528;28;20419;-61
2021/11/04 07:37:43;;;;;;;2.30;1.93;;;;;;;;;;5015182;28;20411;-62
2021/11/04 07:40:09;;;;;;;2.40;1.80;;;;;;;;;;5016330;28;21045;-62
2021/11/04 07:42:36;;;;;;;2.10;1.40;;;;;;;;;;5016338;28;20785;-62
2021/11/04 07:45:03;;;;;;;2.57;1.53;;;;;;;;;;5016162;28;20404;-62
2021/11/04 07:47:29;;;;;;;2.13;1.40;;;;;;;;;;5016205;28;20448;-62
2021/11/04 07:49:55;;;;;;;2.30;1.47;;;;;;;;;;5016321;28;20432;-64
2021/11/04 07:52:21;;;;;;;1.70;1.10;;;;;;;;;;5022123;28;20426;-64
2021/11/04 07:54:47;;;;;;;1.90;1.30;;;;;;;;;;5030958;28;20501;-63
2021/11/04 07:57:14;;;;;;;1.63;1.20;;;;;;;;;;5032602;28;20410;-63
2021/11/04 07:59:40;;;;;;;2.17;1.10;;;;;;;;;;5035585;28;20446;-63
2021/11/04 08:02:06;;;;;;;2.07;1.13;;;;;;;;;;5035422;28;20446;-62
2021/11/04 08:04:32;;;;;;;1.97;1.33;;;;;;;;;;5035482;28;20443;-66
2021/11/04 08:06:58;;;;;;;2.10;1.00;;;;;;;;;;5036084;28;20395;-61
2021/11/04 08:09:25;;;;;;;2.10;1.40;;;;;;;;;;5035829;28;21116;-62
2021/11/04 08:11:52;;;;;;;1.70;1.10;;;;;;;;;;5033641;28;20463;-64
2021/11/04 08:14:18;;;;;;;1.70;1.10;;;;;;;;;;5034438;28;20514;-64
2021/11/04 08:16:44;;;;;;;2.10;1.50;;;;;;;;;;5033059;28;20411;-64
2021/11/04 08:19:10;;;;;;;2.47;1.50;;;;;;;;;;5039657;28;20433;-64
2021/11/04 08:21:36;;;;;;;1.67;1.10;;;;;;;;;;5029108;28;20435;-63
2021/11/04 08:24:02;;;;;;;1.30;0.80;;;;;;;;;;5031169;28;20423;-63
2021/11/04 08:26:28;;;;;;;1.40;0.90;;;;;;;;;;5031344;28;20438;-64
2021/11/04 08:28:55;;;;;;;2.63;1.10;;;;;;;;;;5033786;28;20411;-65
2021/11/04 08:31:21;;;;;;;1.60;1.03;;;;;;;;;;5033822;28;20467;-66
2021/11/04 08:33:47;;;;;;;2.27;1.30;;;;;;;;;;5033946;28;20808;-63
2021/11/04 08:36:13;;;;;;;1.50;1.00;;;;;;;;;;5031752;28;20485;-65
2021/11/04 08:38:40;;;;;;;1.60;0.87;;;;;;;;;;5030723;28;20430;-67
2021/11/04 08:41:06;;;;;;;1.57;1.00;;;;;;;;;;5032441;28;20451;-64
2021/11/04 08:43:32;;;;;;;1.40;0.90;;;;;;;;;;5032794;28;20407;-65
2021/11/04 08:45:58;;;;;;;2.60;1.30;;;;;;;;;;5031795;28;20419;-65
2021/11/04 08:48:24;;;;;;;1.50;1.07;;;;;;;;;;5032115;28;20907;-65
2021/11/04 08:50:51;;;;;;;1.53;1.00;;;;;;;;;;5032558;28;20407;-68
2021/11/04 08:53:17;;;;;;;8.70;1.60;;;;;;;;;;5030924;28;20580;-69
2021/11/04 08:55:44;;;;;;;1.30;0.90;;;;;;;;;;5032314;28;20415;-66
2021/11/04 08:58:10;;;;;;;1.70;1.00;;;;;;;;;;5030779;28;20464;-66
2021/11/04 09:00:36;;;;;;;1.30;0.90;;;;;;;;;;5029616;28;20449;-64
2021/11/04 09:03:02;;;;;;;2.10;1.05;;;;;;;;;;5033095;28;20424;-64
2021/11/04 09:05:29;;;;;;;1.63;1.00;;;;;;;;;;5032051;28;20525;-72
2021/11/04 09:07:55;;;;;;;1.93;1.00;;;;;;;;;;5029709;28;20530;-69
2021/11/04 09:10:22;;;;;;;1.60;1.10;;;;;;;;;;5035286;28;20476;-68
2021/11/04 09:12:49;;;;;;;1.30;0.80;;;;;;;;;;5032573;28;21011;-69
2021/11/04 09:15:15;;;;;;;1.47;1.10;;;;;;;;;;5029121;28;20450;-70
2021/11/04 09:17:41;;;;;;;1.50;1.00;;;;;;;;;;5032625;28;20430;-67
2021/11/04 09:20:08;;;;;;;1.30;0.80;;;;;;;;;;5032222;28;20462;-70
2021/11/04 09:22:35;;;;;;;1.50;1.00;;;;;;;;;;5031739;28;20924;-67
2021/11/04 09:25:01;;;;;;;1.60;1.13;;;;;;;;;;5032878;28;20423;-67
2021/11/04 09:27:27;;;;;;;1.73;1.30;;;;;;;;;;5031242;28;20415;-69
2021/11/04 09:29:56;;;;;;;1.60;1.13;;;;;;;;;;5033883;28;20430;-70
2021/11/04 09:32:22;;;;;;;1.53;1.07;;;;;;;;;;5035145;28;20434;-67
2021/11/04 09:34:48;;;;;;;1.73;1.10;;;;;;;;;;5022837;28;20473;-68
2021/11/04 09:37:17;;;;;;;2.10;0.93;;;;;;;;;;5031760;28;20423;-69
2021/11/04 09:39:43;;;;;;;2.47;1.20;;;;;;;;;;5032130;28;20568;-65
2021/11/04 09:42:09;;;;;;;1.40;1.00;;;;;;;;;;5030758;28;20453;-68
2021/11/04 09:44:35;;;;;;;3.70;1.07;;;;;;;;;;5032105;28;20746;-70
2021/11/04 09:47:01;;;;;;;2.27;1.17;;;;;;;;;;5023948;28;20426;-70
2021/11/04 09:49:29;;;;;;;1.75;0.98;;;;;;;;;;5030787;28;20532;-65
2021/11/04 09:51:55;;;;;;;1.63;1.27;;;;;;;;;;5030949;28;20240;-64
2021/11/04 09:54:22;;;;;;;1.40;0.90;;;;;;;;;;5031546;28;20418;-66
2021/11/04 09:56:48;;;;;;;1.97;1.20;;;;;;;;;;5030728;28;20415;-64
2021/11/04 09:59:14;;;;;;;1.70;1.00;;;;;;;;;;5030502;28;20910;-69
2021/11/04 10:01:47;;;;;;;2.60;1.30;;;;;;;;;;5030376;28;20413;-65
2021/11/04 10:04:13;;;;;;;1.90;1.30;;;;;;;;;;5029483;28;20195;-66
2021/11/04 10:06:40;;;;;;;2.50;1.70;;;;;;;;;;5032007;28;20403;-65
2021/11/04 10:09:10;;;;;;;1.90;1.40;;;;;;;;;;5031237;28;20501;-66
2021/11/04 10:11:40;;;;;;;1.87;1.20;;;;;;;;;;5031139;28;20485;-67
2021/11/04 10:14:08;;;;;;;1.80;1.23;;;;;;;;;;5017644;28;20938;-65
2021/11/04 10:16:34;;;;;;;1.70;1.23;;;;;;;;;;5030392;28;20445;-65
2021/11/04 10:19:11;;;;;;;1.90;1.60;;;;;;;;;;5031130;28;20432;-66
2021/11/04 10:21:39;;;;;;;1.67;1.30;;;;;;;;;;5031152;28;20438;-65
2021/11/04 10:24:09;;;;;;;1.67;1.20;;;;;;;;;;5028465;28;20415;-65
2021/11/04 10:26:39;;;;;;;1.80;1.50;;;;;;;;;;5031331;28;21032;-67
2021/11/04 10:29:09;;;;;;;1.87;1.40;;;;;;;;;;5029933;28;20544;-65
2021/11/04 10:31:49;;;;;;;1.80;1.50;;;;;;;;;;5031156;28;20426;-65
2021/11/04 10:34:35;;;;;;;2.47;1.90;;;;;;;;;;5031907;28;20414;-66
2021/11/04 10:37:09;;;;;;;2.23;1.70;;;;;;;;;;5031052;28;20460;-67
2021/11/04 10:39:37;;;;;;;2.33;1.80;;;;;;;;;;5031866;28;20477;-66
2021/11/04 10:42:03;;;;;;;2.87;1.60;;;;;;;;;;5031682;28;20439;-66
2021/11/04 10:44:31;;;;;;;1.90;1.40;;;;;;;;;;5031915;28;20411;-67
2021/11/04 10:46:57;;;;;;;2.00;1.67;;;;;;;;;;5031694;28;20407;-66
2021/11/04 10:49:24;;;;;;;2.00;1.40;;;;;;;;;;5029526;28;20433;-67
2021/11/04 10:51:58;;;;;;;2.67;1.77;;;;;;;;;;5030859;28;20453;-66
2021/11/04 10:54:24;;;;;;;2.07;1.57;;;;;;;;;;5033349;28;20415;-65
2021/11/04 10:56:54;;;;;;;1.80;1.33;;;;;;;;;;5033859;28;20465;-66
2021/11/04 10:59:21;;;;;;;1.80;1.20;;;;;;;;;;5035889;28;20469;-65
2021/11/04 11:01:48;;;;;;;2.40;1.70;;;;;;;;;;5033806;28;20516;-65
2021/11/04 11:04:14;;;;;;;2.23;1.60;;;;;;;;;;5034749;28;20419;-64
2021/11/04 11:06:46;;;;;;;5.93;1.40;;;8.30;99.90;;;;;;5034996;28;20406;-65
2021/11/04 11:09:17;;;;;;;2.43;1.73;;;8.40;99.90;;;;;;5034017;28;20461;-63
2021/11/04 11:11:45;;;;;;;1.90;1.50;;;;;;;;;;5025898;28;20593;-64
2021/11/04 11:14:11;;;;;;;4.43;1.70;;;;;;;;;;5032833;28;20423;-64
2021/11/04 11:16:44;;;;;;;2.37;1.17;;;8.50;99.90;;;;;;5034274;28;20803;-64
2021/11/04 11:19:11;;;;;;;1.80;1.20;;;8.60;99.90;;;;;;5026655;28;20449;-65
2021/11/04 11:21:42;;;;;;;1.77;1.47;;;8.70;99.90;;;;;;5032811;28;20870;-65
2021/11/04 11:24:10;;;;;;;2.17;1.70;;;9.00;99.90;;;;;;5034453;28;20863;-65
2021/11/04 11:26:37;;;;;;;2.00;1.40;;;;;;;;;;5035251;28;20537;-64
2021/11/04 11:29:04;;;;;;;2.17;1.30;;;;;;;;;;5032206;28;20902;-64
2021/11/04 11:31:30;;;;;;;2.23;1.43;;;;;;;;;;5037102;28;20438;-64
2021/11/04 11:34:11;;;;;;;1.83;1.30;;;;;;;;;;5037645;28;20433;-64
2021/11/04 11:36:39;;;;;;;2.17;1.17;;;;;;;;;;5034923;28;20414;-64
2021/11/04 11:39:11;;;;;;;1.50;1.07;;;;;;;;;;5036513;28;20437;-64
2021/11/04 11:41:52;;;;;;;2.00;1.30;;;;;;;;;;5037024;28;20434;-64
2021/11/04 11:44:37;;;;;;;2.23;1.10;;;;;;;;;;5038532;28;20423;-64
2021/11/04 11:47:04;;;;;;;1.80;1.23;;;;;;;;;;5037671;28;20440;-64
2021/11/04 11:49:31;;;;;;;1.83;1.43;;;;;;;;;;5036665;28;20421;-64
2021/11/04 11:51:57;;;;;;;2.20;1.77;;;;;;;;;;5037927;28;20784;-65
2021/11/04 11:54:43;;;;;;;2.60;1.53;;;;;;;;;;5037993;28;20435;-63
2021/11/04 11:57:12;;;;;;;1.70;1.30;;;;;;;;;;5037143;28;20428;-64
2021/11/04 11:59:49;;;;;;;2.23;1.47;;;;;;;;;;5037804;28;20541;-64
2021/11/04 12:02:35;;;;;;;2.00;1.40;;;;;;;;;;5035051;28;20452;-64
2021/11/04 12:05:20;;;;;;;3.13;1.60;;;;;;;;;;5037214;28;20453;-63
2021/11/04 12:07:50;;;;;;;1.90;1.43;;;;;;;;;;5036573;28;20410;-64
2021/11/04 12:10:31;;;;;;;2.07;1.63;;;;;;;;;;5035480;28;20415;-64
2021/11/04 12:12:58;;;;;;;2.07;1.47;;;;;;;;;;5032942;28;20548;-64
2021/11/04 12:15:24;;;;;;;2.57;1.70;;;;;;;;;;5036743;28;20985;-63
2021/11/04 12:18:10;;;;;;;2.33;1.50;;;;;;;;;;5036600;28;20502;-63
2021/11/04 12:20:36;;;;;;;2.10;1.43;;;;;;;;;;5035032;28;20450;-62
2021/11/04 12:23:02;;;;;;;2.20;1.70;;;;;;;;;;5032700;28;20443;-62
2021/11/04 12:25:29;;;;;;;2.10;1.60;;;;;;;;;;5036969;28;20418;-62
2021/11/04 12:27:58;;;;;;;2.37;1.77;;;;;;;;;;5035595;28;20422;-68
2021/11/04 12:30:27;;;;;;;2.60;1.90;;;;;;;;;;5034107;28;20418;-66
2021/11/04 12:32:58;;;;;;;5.30;2.30;;;;;;;;;;5034192;28;20454;-68
2021/11/04 12:35:24;;;;;;;2.17;1.40;;;;;;;;;;5033372;28;20450;-66
2021/11/04 12:37:50;;;;;;;2.83;1.63;;;;;;;;;;5032965;28;20461;-68
2021/11/04 12:40:17;;;;;;;2.00;1.80;;;;;;;;;;5032579;28;20457;-69
2021/11/04 12:42:44;;;;;;;1.97;1.77;;;;;;;;;;5033713;28;20435;-64
2021/11/04 12:45:10;;;;;;;2.57;2.00;;;;;;;;;;5032955;28;20445;-65
2021/11/04 12:47:36;;;;;;;2.87;2.20;;;;;;;;;;5031519;28;20415;-63
2021/11/04 12:50:02;;;;;;;2.43;2.10;;;;;;;;;;5032834;28;20513;-63
2021/11/04 12:52:28;;;;;;;2.10;1.90;;;;;;;;;;5034261;28;20434;-63
2021/11/04 12:54:56;;;;;;;3.70;2.20;;;;;;;;;;5032735;28;20525;-63
2021/11/04 12:57:23;;;;;;;3.53;2.10;;;;;;;;;;5032544;28;20418;-63
2021/11/04 12:59:49;;;;;;;3.37;2.40;;;;;;;;;;5033062;28;21020;-66
2021/11/04 13:02:23;;;;;;;3.00;2.40;;;;;;;;;;5031210;28;20437;-69
2021/11/04 13:04:51;;;;;;;2.70;2.10;;;;;;;;;;5031731;28;20419;-69
2021/11/04 13:07:22;;;;;;;2.77;2.23;;;;;;;;;;5032589;28;20426;-69
2021/11/04 13:09:55;;;;;;;3.40;2.17;;;;;;;;;;5031725;28;20520;-67
2021/11/04 13:12:23;;;;;;;2.63;2.30;;;;;;;;;;5031588;28;20225;-68
2021/11/04 13:14:53;;;;;;;3.00;1.83;;;;;;;;;;5030965;28;20418;-68
2021/11/04 13:17:19;;;;;;;8.87;2.80;;;;;;;;;;5021961;28;20418;-69
2021/11/04 13:20:20;;;;;;;3.43;2.30;;;;;;;;;;5031037;28;20992;-69
2021/11/04 13:23:07;;;;;;;3.30;2.90;;;;;;;;;;4986850;28;20453;-69
2021/11/04 13:25:37;;;;;;;3.20;2.40;;;;;;;;;;5029298;28;20545;-64
2021/11/04 13:28:09;;;;;;;2.80;2.30;;;;;;;;;;5023190;28;20454;-64
2021/11/04 13:30:36;;;;;;;2.90;2.60;;;;;;;;;;5030534;28;20417;-67
2021/11/04 13:33:03;;;;;;;2.97;2.25;;;;;;;;;;5031394;28;20425;-70
2021/11/04 13:35:36;;;;;;;4.60;2.40;;;;;;;;;;5032660;28;20180;-69
2021/11/04 13:38:06;;;;;;;3.57;2.90;;;;;;;;;;5027562;28;20957;-68
2021/11/04 13:40:36;;;;;;;3.93;3.27;;;;;;;;;;5030649;28;20501;-67
2021/11/04 13:43:02;;;;;;;2.80;2.37;;;;;;;;;;5031620;28;20466;-67
2021/11/04 13:45:30;;;;;;;3.57;3.00;;;;;;;;;;5031767;28;20411;-69
2021/11/04 13:47:59;;;;;;;3.20;2.20;;;;;;;;;;5030976;28;20418;-68
2021/11/04 13:50:35;;;;;;;3.10;2.57;;;;;;;;;;5031008;28;20411;-69
2021/11/04 13:53:11;;;;;;;3.13;2.67;;;;;;;;;;5029887;28;20500;-68
2021/11/04 13:55:37;;;;;;;3.27;2.40;;;;;;;;;;5031616;28;20521;-66
2021/11/04 13:58:03;;;;;;;5.00;2.90;;;;;;;;;;5028292;28;20425;-67
2021/11/04 14:00:32;;;;;;;3.03;2.23;;;;;;;;;;5029626;28;20713;-65
2021/11/04 14:03:03;;;;;;;6.50;2.17;;;;;;;;;;5031879;28;21299;-69
2021/11/04 14:06:01;;;;;;;2.87;2.40;;;;;;;;;;5028514;28;20460;-67
2021/11/04 14:08:39;;;;;;;2.90;2.40;;;;;;;;;;5006837;28;20426;-67
2021/11/04 14:11:12;;;;;;;2.40;1.90;;;;;;;;;;5031436;28;20777;-67
2021/11/04 14:13:57;;;;;;;2.90;2.60;;;;;;;;;;5029474;28;20438;-67
2021/11/04 14:16:31;;;;;;;6.80;2.90;;;;;;;;;;5031270;28;20505;-66
2021/11/04 14:18:58;;;;;;;5.33;3.33;;;;;;;;;;5030478;28;20936;-66
2021/11/04 14:21:26;;;;;;;2.67;2.40;;;;;;;;;;5030443;28;20508;-66
2021/11/04 14:23:52;;;;;;;2.97;2.40;;;;;;;;;;5027626;28;20473;-63
2021/11/04 14:26:18;;;;;;;3.03;2.50;;;;;;;;;;5030471;28;20413;-65
2021/11/04 14:28:46;;;;;;;7.60;3.40;;;;;;;;;;5030731;28;20411;-63
2021/11/04 14:31:13;;;;;;;3.10;2.60;;;;;;;;;;5030917;28;20431;-62
2021/11/04 14:33:39;;;;;;;6.80;2.40;;;;;;;;;;5030406;28;20910;-63
2021/11/04 14:36:05;;;;;;;2.67;2.17;;;;;;;;;;5031569;28;20419;-63
2021/11/04 14:38:31;;;;;;;4.90;3.20;;;;;;;;;;5031243;28;20845;-63
2021/11/04 14:40:57;;;;;;;3.63;2.70;;;;;;;;;;5030829;28;20454;-64
2021/11/04 14:43:26;;;;;;;3.40;3.00;;;;;;;;;;5029855;28;20489;-66
2021/11/04 14:45:54;;;;;;;3.70;2.40;;;;;;;;;;5030523;28;20414;-65